Grande Italia — IBTF — position and weather

sailwx.info

Track history (hours):
 
Tides and Currents Weather Stations Pressure Air Temp Water Temp Dewpoint Dewpoint Depression Visibility Wind Speed Wind Dir Waves Ship Positions

Grande Italia

Last reported at 2015-Jan-24 23:05 UTC. Time now 2015-Jan-26 00:26 UTC.
Position N 41°57' E 003°19'.

Length 177 m; draft 8.2 m.

Type: Ship. MMSI: 247039300.

Date/timePositionNaut miles runAvg speedWind from/ knotsBaromVisibWave heightAir tempDewpointWater temp
2015-Jan-24 23:05N 41°57' E 003°19'1114.6
2015-Jan-24 22:20N 42°07' E 003°22'1114.3
2015-Jan-24 21:33N 42°18' E 003°25'3114.9
2015-Jan-24 19:28N 42°49' E 003°34'2311.9
2015-Jan-24 17:32N 43°08' E 003°50'1212.1
2015-Jan-24 16:30N 43°11' E 004°07'1212.0
2015-Jan-24 15:32N 43°13' E 004°23'1313.2
2015-Jan-24 14:34N 43°15' E 004°40'1313.2
2015-Jan-24 13:33N 43°18' E 004°58'8 7.3
2015-Jan-24 12:32N 43°24' E 004°51'0 0.0
2015-Jan-24 11:32N 43°24' E 004°51'0 0.0
2015-Jan-24 10:32N 43°24' E 004°51'0 0.0
2015-Jan-24 09:32N 43°24' E 004°51'0 0.0
2015-Jan-24 08:32N 43°24' E 004°51'0 0.0
2015-Jan-24 07:32N 43°24' E 004°51'0 0.0
2015-Jan-24 06:32N 43°24' E 004°51'0 0.0
2015-Jan-24 05:29N 43°24' E 004°51'0 0.0
2015-Jan-24 04:32N 43°24' E 004°51'5 5.0
2015-Jan-24 03:33N 43°22' E 004°57'1110.6
2015-Jan-24 02:33N 43°13' E 005°03'1312.5
2015-Jan-24 01:33N 43°07' E 005°18'4113.4
2015-Jan-23 22:30N 42°53' E 006°10'1313.5
2015-Jan-23 21:33N 42°50' E 006°28'1413.5
2015-Jan-23 20:33N 42°58' E 006°43'1514.7
2015-Jan-23 19:33N 43°07' E 006°59'1514.6
2015-Jan-23 18:34N 43°16' E 007°15'1514.5
2015-Jan-23 17:33N 43°25' E 007°30'1515.3
2015-Jan-23 16:33N 43°35' E 007°47'1715.6
2015-Jan-23 15:25N 43°46' E 008°06'1415.9
2015-Jan-23 14:33N 43°54' E 008°21'1515.3
2015-Jan-23 13:33N 44°08' E 008°29'10 9.9
2015-Jan-23 12:31N 44°19' E 008°30'0 0.0
2015-Jan-23 11:31N 44°19' E 008°30'0 0.0
2015-Jan-23 10:31N 44°19' E 008°30'0 0.0
2015-Jan-23 09:31N 44°19' E 008°30'0 0.0
2015-Jan-23 08:31N 44°19' E 008°30'0 0.0
2015-Jan-23 07:31N 44°19' E 008°30'0 0.0
2015-Jan-23 06:31N 44°19' E 008°30'1 1.1
2015-Jan-23 05:33N 44°19' E 008°31'2 1.6
2015-Jan-23 04:34N 44°18' E 008°33'1110.9
2015-Jan-23 03:33N 44°11' E 008°45'1414.0
2015-Jan-23 02:33N 44°02' E 009°01'1414.0
2015-Jan-23 01:33N 43°54' E 009°16'1414.3
2015-Jan-23 00:34N 43°45' E 009°32'1414.5
2015-Jan-22 23:33N 43°37' E 009°48'1414.1
2015-Jan-22 22:33N 43°29' E 010°04'1110.9
2015-Jan-22 21:34N 43°34' E 010°18'1 1.3
2015-Jan-22 20:31N 43°35' E 010°19'0 0.0
2015-Jan-22 19:31N 43°35' E 010°19'0 0.0
2015-Jan-22 18:31N 43°35' E 010°19'0 0.0
2015-Jan-22 17:31N 43°35' E 010°19'0 0.0
2015-Jan-22 16:31N 43°35' E 010°19'0 0.0
2015-Jan-22 15:31N 43°35' E 010°19'0 0.0
2015-Jan-22 14:31N 43°35' E 010°19'0 0.0
2015-Jan-22 13:31N 43°35' E 010°19'0 0.0
2015-Jan-22 12:31N 43°35' E 010°19'0 0.0
2015-Jan-22 11:31N 43°35' E 010°19'0 0.0
2015-Jan-22 10:31N 43°35' E 010°19'0 0.0
2015-Jan-22 09:33N 43°35' E 010°19'0 0.0
2015-Jan-22 08:31N 43°35' E 010°19'0 0.0
2015-Jan-22 07:31N 43°35' E 010°19'0 0.0
2015-Jan-22 06:31N 43°35' E 010°19'0 0.0
2015-Jan-22 05:31N 43°35' E 010°19'0 0.0
2015-Jan-22 04:31N 43°35' E 010°19'0 0.0
2015-Jan-22 03:31N 43°35' E 010°19'3 3.4
2015-Jan-22 02:33N 43°32' E 010°16'1312.9
2015-Jan-22 01:34N 43°19' E 010°15'1615.1
2015-Jan-22 00:31N 43°05' E 010°23'18115.2
2015-Jan-21 12:34N 40°58' E 013°18'1515.1
2015-Jan-21 11:34N 40°49' E 013°33'1514.8
2015-Jan-21 10:33N 40°38' E 013°47'1515.5
2015-Jan-21 09:33N 40°32' E 014°06'1413.8
2015-Jan-21 08:33N 40°32' E 014°24'15 1.4
2015-Jan-20 21:33N 40°31' E 014°45'14314.0
2015-Jan-20 11:17N 38°14' E 015°37'1817.4
2015-Jan-20 10:16N 37°56' E 015°37'1515.0
2015-Jan-20 09:18N 37°50' E 015°53'36514.7
2015-Jan-19 08:27N 36°09' E 023°13'24514.4
2015-Jan-18 15:27N 39°44' E 025°43'1314.0
2015-Jan-18 14:33N 39°56' E 025°50'2913.9
2015-Jan-18 12:28N 40°09' E 026°23'1313.8
2015-Jan-18 11:30N 40°19' E 026°36'1313.8
2015-Jan-18 10:32N 40°28' E 026°49'1111.6
2015-Jan-18 09:34N 40°33' E 027°02'  
2015-Jan-15 19:15N 40°36' E 027°16'2615.1
2015-Jan-15 17:30N 40°25' E 026°44'4711.5
2015-Jan-15 13:23N 39°56' E 025°55'0 0.4
2015-Jan-15 12:22N 39°55' E 025°55'0 0.6
2015-Jan-15 11:33N 39°55' E 025°55'1 0.7
2015-Jan-15 10:21N 39°56' E 025°57'1 0.7
2015-Jan-15 09:33N 39°56' E 025°57'1 1.0
2015-Jan-15 08:20N 39°57' E 025°58'5 5.1
2015-Jan-15 07:22N 39°55' E 025°53'8 8.2
2015-Jan-15 06:26N 39°49' E 025°45'9814.2
2015-Jan-14 23:33N 38°12' E 025°33'  
Track history (hours):
 
Tides and Currents Weather Stations Pressure Air Temp Water Temp Dewpoint Dewpoint Depression Visibility Wind Speed Wind Dir Waves Ship Positions

Grande Italia

Last reported at 2015-Jan-24 23:05 UTC. Time now 2015-Jan-26 00:26 UTC.
Position N 41°57' E 003°19'.

Length 177 m; draft 8.2 m.

Type: Ship. MMSI: 247039300.

Date/timePositionNaut miles runAvg speedWind from/ knotsBaromVisibWave heightAir tempDewpointWater temp
2015-Jan-24 23:05N 41°57' E 003°19'1114.6
2015-Jan-24 22:20N 42°07' E 003°22'1114.3
2015-Jan-24 21:33N 42°18' E 003°25'3114.9
2015-Jan-24 19:28N 42°49' E 003°34'2311.9
2015-Jan-24 17:32N 43°08' E 003°50'1212.1
2015-Jan-24 16:30N 43°11' E 004°07'1212.0
2015-Jan-24 15:32N 43°13' E 004°23'1313.2
2015-Jan-24 14:34N 43°15' E 004°40'1313.2
2015-Jan-24 13:33N 43°18' E 004°58'8 7.3
2015-Jan-24 12:32N 43°24' E 004°51'0 0.0
2015-Jan-24 11:32N 43°24' E 004°51'0 0.0
2015-Jan-24 10:32N 43°24' E 004°51'0 0.0
2015-Jan-24 09:32N 43°24' E 004°51'0 0.0
2015-Jan-24 08:32N 43°24' E 004°51'0 0.0
2015-Jan-24 07:32N 43°24' E 004°51'0 0.0
2015-Jan-24 06:32N 43°24' E 004°51'0 0.0
2015-Jan-24 05:29N 43°24' E 004°51'0 0.0
2015-Jan-24 04:32N 43°24' E 004°51'5 5.0
2015-Jan-24 03:33N 43°22' E 004°57'1110.6
2015-Jan-24 02:33N 43°13' E 005°03'1312.5
2015-Jan-24 01:33N 43°07' E 005°18'4113.4
2015-Jan-23 22:30N 42°53' E 006°10'1313.5
2015-Jan-23 21:33N 42°50' E 006°28'1413.5
2015-Jan-23 20:33N 42°58' E 006°43'1514.7
2015-Jan-23 19:33N 43°07' E 006°59'1514.6
2015-Jan-23 18:34N 43°16' E 007°15'1514.5
2015-Jan-23 17:33N 43°25' E 007°30'1515.3
2015-Jan-23 16:33N 43°35' E 007°47'1715.6
2015-Jan-23 15:25N 43°46' E 008°06'1415.9
2015-Jan-23 14:33N 43°54' E 008°21'1515.3
2015-Jan-23 13:33N 44°08' E 008°29'10 9.9
2015-Jan-23 12:31N 44°19' E 008°30'0 0.0
2015-Jan-23 11:31N 44°19' E 008°30'0 0.0
2015-Jan-23 10:31N 44°19' E 008°30'0 0.0
2015-Jan-23 09:31N 44°19' E 008°30'0 0.0
2015-Jan-23 08:31N 44°19' E 008°30'0 0.0
2015-Jan-23 07:31N 44°19' E 008°30'0 0.0
2015-Jan-23 06:31N 44°19' E 008°30'1 1.1
2015-Jan-23 05:33N 44°19' E 008°31'2 1.6
2015-Jan-23 04:34N 44°18' E 008°33'1110.9
2015-Jan-23 03:33N 44°11' E 008°45'1414.0
2015-Jan-23 02:33N 44°02' E 009°01'1414.0
2015-Jan-23 01:33N 43°54' E 009°16'1414.3
2015-Jan-23 00:34N 43°45' E 009°32'1414.5
2015-Jan-22 23:33N 43°37' E 009°48'1414.1
2015-Jan-22 22:33N 43°29' E 010°04'1110.9
2015-Jan-22 21:34N 43°34' E 010°18'1 1.3
2015-Jan-22 20:31N 43°35' E 010°19'0 0.0
2015-Jan-22 19:31N 43°35' E 010°19'0 0.0
2015-Jan-22 18:31N 43°35' E 010°19'0 0.0
2015-Jan-22 17:31N 43°35' E 010°19'0 0.0
2015-Jan-22 16:31N 43°35' E 010°19'0 0.0
2015-Jan-22 15:31N 43°35' E 010°19'0 0.0
2015-Jan-22 14:31N 43°35' E 010°19'0 0.0
2015-Jan-22 13:31N 43°35' E 010°19'0 0.0
2015-Jan-22 12:31N 43°35' E 010°19'0 0.0
2015-Jan-22 11:31N 43°35' E 010°19'0 0.0
2015-Jan-22 10:31N 43°35' E 010°19'0 0.0
2015-Jan-22 09:33N 43°35' E 010°19'0 0.0
2015-Jan-22 08:31N 43°35' E 010°19'0 0.0
2015-Jan-22 07:31N 43°35' E 010°19'0 0.0
2015-Jan-22 06:31N 43°35' E 010°19'0 0.0
2015-Jan-22 05:31N 43°35' E 010°19'0 0.0
2015-Jan-22 04:31N 43°35' E 010°19'0 0.0
2015-Jan-22 03:31N 43°35' E 010°19'3 3.4
2015-Jan-22 02:33N 43°32' E 010°16'1312.9
2015-Jan-22 01:34N 43°19' E 010°15'1615.1
2015-Jan-22 00:31N 43°05' E 010°23'18115.2
2015-Jan-21 12:34N 40°58' E 013°18'1515.1
2015-Jan-21 11:34N 40°49' E 013°33'1514.8
2015-Jan-21 10:33N 40°38' E 013°47'1515.5
2015-Jan-21 09:33N 40°32' E 014°06'1413.8
2015-Jan-21 08:33N 40°32' E 014°24'15 1.4
2015-Jan-20 21:33N 40°31' E 014°45'14314.0
2015-Jan-20 11:17N 38°14' E 015°37'1817.4
2015-Jan-20 10:16N 37°56' E 015°37'1515.0
2015-Jan-20 09:18N 37°50' E 015°53'36514.7
2015-Jan-19 08:27N 36°09' E 023°13'24514.4
2015-Jan-18 15:27N 39°44' E 025°43'1314.0
2015-Jan-18 14:33N 39°56' E 025°50'2913.9
2015-Jan-18 12:28N 40°09' E 026°23'1313.8
2015-Jan-18 11:30N 40°19' E 026°36'1313.8
2015-Jan-18 10:32N 40°28' E 026°49'1111.6
2015-Jan-18 09:34N 40°33' E 027°02'  
2015-Jan-15 19:15N 40°36' E 027°16'2615.1
2015-Jan-15 17:30N 40°25' E 026°44'4711.5
2015-Jan-15 13:23N 39°56' E 025°55'0 0.4
2015-Jan-15 12:22N 39°55' E 025°55'0 0.6
2015-Jan-15 11:33N 39°55' E 025°55'1 0.7
2015-Jan-15 10:21N 39°56' E 025°57'1 0.7
2015-Jan-15 09:33N 39°56' E 025°57'1 1.0
2015-Jan-15 08:20N 39°57' E 025°58'5 5.1
2015-Jan-15 07:22N 39°55' E 025°53'8 8.2
2015-Jan-15 06:26N 39°49' E 025°45'9814.2
2015-Jan-14 23:33N 38°12' E 025°33'  

Dump ship's entire track history